Terminal Aerodrome Forecast
Issued by NWS Pueblo, CO

Home | Current Version | Previous Version | Text Only | Print | Product List | Glossary On
Versions: 1 2 3 4 5 6 7 8 9 10 11 12 13 14
000
FTUS45 KPUB 210520
TAFCOS
TAF
KCOS 210520Z 2106/2206 35013KT P6SM SCT090 SCT200
     FM211400 35009KT P6SM FEW090 SCT200
     FM211700 16009KT P6SM FEW060 BKN100
     FM212000 18013KT P6SM FEW060 BKN100
     FM220300 15006KT P6SM FEW100 SCT200=

USA.gov is the U.S. government's official web portal to all federal, state and local government web resources and services.